createdAt,value
2019-06-26T00:00:43.169Z,0.00
2019-06-26T00:01:43.145Z,0.00
2019-06-26T00:02:43.123Z,0.00
2019-06-26T00:03:43.117Z,0.00
2019-06-26T00:04:43.103Z,0.00
2019-06-26T00:05:43.101Z,0.00
2019-06-26T00:06:43.094Z,0.00
2019-06-26T00:07:43.073Z,0.00
2019-06-26T00:08:43.058Z,0.00
2019-06-26T00:09:43.047Z,0.00
2019-06-26T00:10:43.067Z,0.00
2019-06-26T00:11:43.034Z,0.00
2019-06-26T00:12:43.035Z,0.00
2019-06-26T00:13:43.033Z,0.00
2019-06-26T00:14:42.995Z,0.00
2019-06-26T00:15:42.986Z,0.00
2019-06-26T00:16:42.973Z,0.00
2019-06-26T00:17:42.967Z,0.00
2019-06-26T00:18:42.947Z,0.00
2019-06-26T00:19:42.952Z,0.00
2019-06-26T00:20:42.936Z,0.00
2019-06-26T00:21:42.914Z,0.00
2019-06-26T00:22:42.905Z,0.00
2019-06-26T00:23:42.929Z,0.00
2019-06-26T00:24:42.878Z,0.00
2019-06-26T00:25:42.867Z,0.00
2019-06-26T00:26:42.857Z,0.00
2019-06-26T00:27:42.848Z,0.00
2019-06-26T00:28:42.839Z,0.00
2019-06-26T00:29:42.840Z,0.00
2019-06-26T00:30:42.820Z,0.00
2019-06-26T00:31:42.809Z,0.00
2019-06-26T00:32:42.809Z,0.00
2019-06-26T00:33:42.784Z,0.00
2019-06-26T00:34:42.779Z,0.00
2019-06-26T00:35:42.764Z,0.00
2019-06-26T00:36:42.749Z,0.00
2019-06-26T00:37:42.789Z,0.00
2019-06-26T00:38:42.727Z,0.00
2019-06-26T00:39:42.728Z,0.00
2019-06-26T00:40:42.700Z,0.00
2019-06-26T00:41:42.689Z,0.00
2019-06-26T00:42:42.677Z,0.00
2019-06-26T00:43:43.015Z,0.00
2019-06-26T00:44:42.674Z,0.00
2019-06-26T00:45:42.651Z,0.00
2019-06-26T00:46:42.652Z,0.00
2019-06-26T00:47:42.626Z,0.00
2019-06-26T00:48:42.611Z,0.00
2019-06-26T00:49:42.630Z,0.00
2019-06-26T00:50:42.602Z,0.00
2019-06-26T00:51:42.587Z,0.00
2019-06-26T00:52:42.575Z,0.00
2019-06-26T00:53:42.556Z,0.00
2019-06-26T00:54:42.559Z,0.00
2019-06-26T00:55:42.559Z,0.00
2019-06-26T00:56:42.522Z,0.00
2019-06-26T00:57:42.516Z,0.00
2019-06-26T00:58:42.504Z,0.00
2019-06-26T00:59:42.499Z,0.00
2019-06-26T01:00:42.485Z,0.00
2019-06-26T01:01:42.490Z,0.00
2019-06-26T01:02:42.467Z,0.00
2019-06-26T01:03:42.444Z,0.00
2019-06-26T01:04:42.439Z,0.00
2019-06-26T01:05:42.426Z,0.00
2019-06-26T01:06:42.482Z,0.00
2019-06-26T01:07:42.402Z,0.00
2019-06-26T01:08:42.393Z,0.00
2019-06-26T01:09:42.386Z,0.00
2019-06-26T01:10:42.369Z,0.00
2019-06-26T01:11:42.365Z,0.00
2019-06-26T01:12:42.376Z,0.00
2019-06-26T01:13:57.117Z,0.00
2019-06-26T01:14:43.322Z,0.00
2019-06-26T01:15:42.312Z,0.00
2019-06-26T01:16:42.299Z,0.00
2019-06-26T01:17:42.302Z,0.00
2019-06-26T01:18:42.283Z,0.00
2019-06-26T01:19:42.267Z,0.00
2019-06-26T01:20:42.257Z,0.00
2019-06-26T01:21:42.243Z,0.00
2019-06-26T01:22:42.259Z,0.00
2019-06-26T01:23:42.223Z,0.00
2019-06-26T01:24:42.220Z,0.00
2019-06-26T01:25:42.212Z,0.00
2019-06-26T01:26:42.193Z,0.00
2019-06-26T01:27:42.184Z,0.00
2019-06-26T01:28:42.180Z,0.00
2019-06-26T01:29:42.160Z,0.00
2019-06-26T01:30:42.145Z,0.00
2019-06-26T01:31:42.132Z,0.00
2019-06-26T01:32:42.131Z,0.00
2019-06-26T01:33:42.111Z,0.00
2019-06-26T01:34:42.104Z,0.00
2019-06-26T01:35:42.123Z,0.00
2019-06-26T01:36:42.085Z,0.00
2019-06-26T01:37:42.067Z,0.00
2019-06-26T01:38:42.056Z,0.00
2019-06-26T01:39:42.043Z,0.00
2019-06-26T01:40:42.038Z,0.00
2019-06-26T01:41:42.023Z,0.00
2019-06-26T01:42:42.018Z,0.00
2019-06-26T01:43:42.003Z,0.00
2019-06-26T01:44:41.997Z,0.00
2019-06-26T01:45:41.979Z,0.00
2019-06-26T01:46:41.967Z,0.00
2019-06-26T01:47:41.965Z,0.00
2019-06-26T01:48:41.955Z,0.00
2019-06-26T01:49:41.941Z,0.00
2019-06-26T01:50:41.925Z,0.00
2019-06-26T01:51:41.909Z,0.00
2019-06-26T01:52:41.899Z,0.00
2019-06-26T01:53:41.916Z,0.00
2019-06-26T01:54:41.881Z,0.00
2019-06-26T01:55:41.869Z,0.00
2019-06-26T01:56:41.852Z,0.00
2019-06-26T01:57:41.849Z,0.00
2019-06-26T01:58:41.856Z,0.00
2019-06-26T01:59:41.858Z,0.00
2019-06-26T02:00:41.813Z,0.00
2019-06-26T02:01:41.797Z,4.00
2019-06-26T02:02:41.788Z,4.00
2019-06-26T02:03:41.779Z,4.00
2019-06-26T02:04:41.765Z,4.00
2019-06-26T02:05:41.792Z,4.00
2019-06-26T02:06:41.744Z,4.00
2019-06-26T02:07:41.759Z,4.00
2019-06-26T02:08:41.726Z,4.00
2019-06-26T02:09:41.709Z,4.00
2019-06-26T02:10:41.695Z,8.00
2019-06-26T02:11:41.705Z,4.00
2019-06-26T02:12:41.722Z,8.00
2019-06-26T02:13:41.667Z,8.00
2019-06-26T02:14:41.657Z,8.00
2019-06-26T02:15:41.647Z,12.00
2019-06-26T02:16:41.640Z,12.00
2019-06-26T02:17:41.633Z,16.00
2019-06-26T02:18:41.610Z,16.00
2019-06-26T02:19:41.594Z,16.00
2019-06-26T02:20:41.605Z,16.00
2019-06-26T02:21:41.575Z,20.00
2019-06-26T02:22:41.565Z,20.00
2019-06-26T02:23:41.554Z,24.00
2019-06-26T02:24:41.562Z,28.00
2019-06-26T02:25:41.526Z,32.00
2019-06-26T02:26:41.533Z,36.00
2019-06-26T02:27:41.512Z,40.00
2019-06-26T02:28:41.498Z,48.00
2019-06-26T02:29:41.486Z,48.00
2019-06-26T02:30:41.476Z,56.00
2019-06-26T02:31:41.467Z,56.00
2019-06-26T02:32:41.488Z,64.00
2019-06-26T02:33:41.446Z,68.00
2019-06-26T02:34:41.439Z,80.00
2019-06-26T02:35:41.419Z,84.00
2019-06-26T02:36:41.408Z,92.00
2019-06-26T02:37:41.404Z,100.00
2019-06-26T02:38:41.401Z,112.00
2019-06-26T02:39:41.368Z,120.00
2019-06-26T02:40:41.367Z,128.00
2019-06-26T02:41:41.355Z,144.00
2019-06-26T02:42:41.347Z,156.00
2019-06-26T02:43:41.361Z,168.00
2019-06-26T02:44:52.902Z,184.00
2019-06-26T02:45:42.302Z,196.00
2019-06-26T02:46:41.299Z,208.00
2019-06-26T02:47:41.302Z,224.00
2019-06-26T02:48:41.274Z,240.00
2019-06-26T02:49:41.282Z,260.00
2019-06-26T02:50:41.247Z,276.00
2019-06-26T02:51:41.240Z,296.00
2019-06-26T02:52:41.227Z,320.00
2019-06-26T02:53:41.211Z,340.00
2019-06-26T02:54:41.242Z,360.00
2019-06-26T02:55:41.202Z,380.00
2019-06-26T02:56:41.198Z,404.00
2019-06-26T02:57:41.196Z,424.00
2019-06-26T02:58:41.163Z,452.00
2019-06-26T02:59:41.159Z,476.00
2019-06-26T03:00:41.149Z,500.00
2019-06-26T03:01:41.128Z,524.00
2019-06-26T03:02:41.142Z,548.00
2019-06-26T03:03:41.102Z,572.00
2019-06-26T03:04:41.087Z,596.00
2019-06-26T03:05:41.092Z,620.00
2019-06-26T03:06:41.066Z,640.00
2019-06-26T03:07:41.056Z,656.00
2019-06-26T03:08:41.047Z,680.00
2019-06-26T03:09:41.036Z,696.00
2019-06-26T03:10:41.029Z,712.00
2019-06-26T03:11:41.014Z,728.00
2019-06-26T03:12:40.999Z,740.00
2019-06-26T03:13:41.008Z,756.00
2019-06-26T03:14:40.985Z,772.00
2019-06-26T03:15:41.011Z,788.00
2019-06-26T03:16:40.958Z,804.00
2019-06-26T03:17:54.182Z,820.00
2019-06-26T03:18:41.931Z,836.00
2019-06-26T03:19:40.925Z,856.00
2019-06-26T03:20:40.907Z,872.00
2019-06-26T03:21:40.902Z,896.00
2019-06-26T03:22:40.884Z,924.00
2019-06-26T03:23:40.908Z,956.00
2019-06-26T03:24:40.865Z,992.00
2019-06-26T03:25:40.857Z,1028.00
2019-06-26T03:26:40.862Z,1068.00
2019-06-26T03:27:40.839Z,1104.00
2019-06-26T03:28:40.818Z,1148.00
2019-06-26T03:29:40.806Z,1188.00
2019-06-26T03:30:40.812Z,1228.00
2019-06-26T03:31:40.815Z,1256.00
2019-06-26T03:32:40.787Z,1288.00
2019-06-26T03:33:40.768Z,1328.00
2019-06-26T03:34:40.758Z,1360.00
2019-06-26T03:35:41.032Z,1388.00
2019-06-26T03:36:40.763Z,1428.00
2019-06-26T03:37:40.726Z,1472.00
2019-06-26T03:38:40.707Z,1508.00
2019-06-26T03:39:40.702Z,1540.00
2019-06-26T03:40:40.683Z,1576.00
2019-06-26T03:41:40.676Z,1608.00
2019-06-26T03:42:40.675Z,1628.00
2019-06-26T03:43:40.650Z,1668.00
2019-06-26T03:44:40.644Z,1704.00
2019-06-26T03:45:40.642Z,1728.00
2019-06-26T03:46:40.625Z,1748.00
2019-06-26T03:47:40.674Z,1772.00
2019-06-26T03:48:40.594Z,1816.00
2019-06-26T03:49:40.588Z,1868.00
2019-06-26T03:50:40.585Z,1904.00
2019-06-26T03:51:40.627Z,1920.00
2019-06-26T03:52:40.555Z,1928.00
2019-06-26T03:53:40.567Z,1940.00
2019-06-26T03:54:40.527Z,1956.00
2019-06-26T03:55:40.521Z,1960.00
2019-06-26T03:56:40.502Z,1976.00
2019-06-26T03:57:40.548Z,2008.00
2019-06-26T03:58:40.546Z,2072.00
2019-06-26T03:59:40.469Z,2124.00
2019-06-26T04:00:40.461Z,2144.00
2019-06-26T04:01:40.445Z,2164.00
2019-06-26T04:02:40.453Z,2196.00
2019-06-26T04:03:40.424Z,2232.00
2019-06-26T04:04:40.430Z,2288.00
2019-06-26T04:05:40.404Z,2316.00
2019-06-26T04:06:40.402Z,2364.00
2019-06-26T04:07:40.380Z,2416.00
2019-06-26T04:08:40.367Z,2456.00
2019-06-26T04:09:40.374Z,2504.00
2019-06-26T04:10:43.250Z,2536.00
2019-06-26T04:11:40.336Z,2564.00
2019-06-26T04:12:40.325Z,2584.00
2019-06-26T04:13:40.323Z,2604.00
2019-06-26T04:14:40.314Z,2628.00
2019-06-26T04:15:42.378Z,2648.00
2019-06-26T04:16:40.288Z,2668.00
2019-06-26T04:17:40.274Z,2684.00
2019-06-26T04:18:40.261Z,2688.00
2019-06-26T04:19:40.299Z,2704.00
2019-06-26T04:20:40.242Z,2708.00
2019-06-26T04:21:40.239Z,2724.00
2019-06-26T04:22:40.216Z,2740.00
2019-06-26T04:23:40.205Z,2760.00
2019-06-26T04:24:40.209Z,2776.00
2019-06-26T04:25:40.202Z,2792.00
2019-06-26T04:26:40.170Z,2808.00
2019-06-26T04:27:40.166Z,2832.00
2019-06-26T04:28:40.153Z,2844.00
2019-06-26T04:29:40.133Z,2872.00
2019-06-26T04:30:40.155Z,2896.00
2019-06-26T04:31:40.112Z,2924.00
2019-06-26T04:32:40.102Z,2944.00
2019-06-26T04:33:40.093Z,2964.00
2019-06-26T04:34:40.079Z,2980.00
2019-06-26T04:35:40.082Z,3004.00
2019-06-26T04:36:40.060Z,3024.00
2019-06-26T04:37:40.073Z,3056.00
2019-06-26T04:38:40.062Z,3080.00
2019-06-26T04:39:40.030Z,3100.00
2019-06-26T04:40:40.025Z,3128.00
2019-06-26T04:41:40.022Z,3152.00
2019-06-26T04:42:39.993Z,3180.00
2019-06-26T04:43:39.982Z,3204.00
2019-06-26T04:44:39.972Z,3224.00
2019-06-26T04:45:39.958Z,3244.00
2019-06-26T04:46:39.953Z,3272.00
2019-06-26T04:47:39.945Z,3292.00
2019-06-26T04:48:39.927Z,3312.00
2019-06-26T04:49:39.911Z,3332.00
2019-06-26T04:50:39.909Z,3360.00
2019-06-26T04:51:39.889Z,3384.00
2019-06-26T04:52:39.922Z,3408.00
2019-06-26T04:53:39.878Z,3436.00
2019-06-26T04:54:39.861Z,3464.00
2019-06-26T04:55:39.852Z,3484.00
2019-06-26T04:56:39.836Z,3504.00
2019-06-26T04:57:39.827Z,3520.00
2019-06-26T04:58:39.834Z,3536.00
2019-06-26T04:59:39.805Z,3552.00
2019-06-26T05:00:39.795Z,3568.00
2019-06-26T05:01:39.791Z,3580.00
2019-06-26T05:02:39.777Z,3592.00
2019-06-26T05:03:39.784Z,3616.00
2019-06-26T05:04:39.751Z,3632.00
2019-06-26T05:05:40.301Z,3648.00
2019-06-26T05:06:39.726Z,3660.00
2019-06-26T05:07:39.718Z,3672.00
2019-06-26T05:08:39.736Z,3688.00
2019-06-26T05:09:39.697Z,3700.00
2019-06-26T05:10:39.726Z,3720.00
2019-06-26T05:11:39.672Z,3740.00
2019-06-26T05:12:39.665Z,3760.00
2019-06-26T05:13:39.645Z,3768.00
2019-06-26T05:14:39.681Z,3784.00
2019-06-26T05:15:39.626Z,3808.00
2019-06-26T05:16:39.623Z,3824.00
2019-06-26T05:17:39.602Z,3840.00
2019-06-26T05:18:39.588Z,3860.00
2019-06-26T05:19:39.594Z,3880.00
2019-06-26T05:20:39.569Z,3896.00
2019-06-26T05:21:39.553Z,3920.00
2019-06-26T05:22:39.572Z,3928.00
2019-06-26T05:23:39.550Z,3936.00
2019-06-26T05:24:39.524Z,3956.00
2019-06-26T05:25:39.517Z,3972.00
2019-06-26T05:26:39.524Z,3996.00
2019-06-26T05:27:39.490Z,4008.00
2019-06-26T05:28:39.480Z,4028.00
2019-06-26T05:29:39.474Z,4044.00
2019-06-26T05:30:39.609Z,4060.00
2019-06-26T05:31:39.455Z,4080.00
2019-06-26T05:32:39.438Z,4096.00
2019-06-26T05:33:39.436Z,4104.00
2019-06-26T05:34:39.412Z,4112.00
2019-06-26T05:35:39.439Z,4136.00
2019-06-26T05:36:39.419Z,4152.00
2019-06-26T05:37:39.380Z,4164.00
2019-06-26T05:38:39.373Z,4184.00
2019-06-26T05:39:39.366Z,4200.00
2019-06-26T05:40:39.350Z,4212.00
2019-06-26T05:41:39.370Z,4224.00
2019-06-26T05:42:39.337Z,4232.00
2019-06-26T05:43:39.354Z,4248.00
2019-06-26T05:44:39.299Z,4264.00
2019-06-26T05:45:39.295Z,4284.00
2019-06-26T05:46:39.303Z,4300.00
2019-06-26T05:47:39.277Z,4316.00
2019-06-26T05:48:39.254Z,4344.00
2019-06-26T05:49:39.243Z,4356.00
2019-06-26T05:50:39.242Z,4360.00
2019-06-26T05:51:39.227Z,4380.00
2019-06-26T05:52:42.441Z,4400.00
2019-06-26T05:53:39.200Z,4400.00
2019-06-26T05:54:39.194Z,4404.00
2019-06-26T05:55:39.177Z,4416.00
2019-06-26T05:56:39.166Z,4432.00
2019-06-26T05:57:41.817Z,4444.00
2019-06-26T05:58:39.219Z,4476.00
2019-06-26T05:59:39.160Z,4504.00
2019-06-26T06:00:39.130Z,4528.00
2019-06-26T06:01:39.145Z,4564.00
2019-06-26T06:02:39.099Z,4600.00
2019-06-26T06:03:39.101Z,4620.00
2019-06-26T06:04:39.087Z,4640.00
2019-06-26T06:05:39.072Z,4664.00
2019-06-26T06:06:42.115Z,4680.00
2019-06-26T06:07:39.044Z,4688.00
2019-06-26T06:08:39.050Z,4692.00
2019-06-26T06:09:39.028Z,4708.00
2019-06-26T06:10:39.061Z,4720.00
2019-06-26T06:11:39.003Z,4748.00
2019-06-26T06:12:39.019Z,4752.00
2019-06-26T06:13:38.982Z,4756.00
2019-06-26T06:14:38.981Z,4764.00
2019-06-26T06:15:38.989Z,4780.00
2019-06-26T06:16:47.508Z,4792.00
2019-06-26T06:17:39.947Z,4796.00
2019-06-26T06:18:38.938Z,4812.00
2019-06-26T06:19:38.923Z,4828.00
2019-06-26T06:20:38.978Z,4848.00
2019-06-26T06:21:38.903Z,4860.00
2019-06-26T06:22:38.916Z,4884.00
2019-06-26T06:23:38.884Z,4900.00
2019-06-26T06:24:38.914Z,4908.00
2019-06-26T06:25:38.895Z,4924.00
2019-06-26T06:26:38.842Z,4936.00
2019-06-26T06:27:38.834Z,4948.00
2019-06-26T06:28:38.832Z,4952.00
2019-06-26T06:29:38.822Z,4964.00
2019-06-26T06:30:38.807Z,4972.00
2019-06-26T06:31:38.794Z,4988.00
2019-06-26T06:32:38.777Z,5008.00
2019-06-26T06:33:38.771Z,5028.00
2019-06-26T06:34:38.758Z,5044.00
2019-06-26T06:35:38.775Z,5060.00
2019-06-26T06:36:38.738Z,5064.00
2019-06-26T06:37:38.725Z,5064.00
2019-06-26T06:38:38.713Z,5072.00
2019-06-26T06:39:38.699Z,5096.00
2019-06-26T06:40:38.727Z,5108.00
2019-06-26T06:41:38.676Z,5128.00
2019-06-26T06:42:38.664Z,5152.00
2019-06-26T06:43:38.656Z,5176.00
2019-06-26T06:44:38.652Z,5188.00
2019-06-26T06:45:38.641Z,5196.00
2019-06-26T06:46:38.641Z,5204.00
2019-06-26T06:47:38.615Z,5212.00
2019-06-26T06:48:38.605Z,5220.00
2019-06-26T06:49:38.593Z,5224.00
2019-06-26T06:50:38.580Z,5236.00
2019-06-26T06:51:38.611Z,5252.00
2019-06-26T06:52:38.554Z,5264.00
2019-06-26T06:53:38.541Z,5268.00
2019-06-26T06:54:38.539Z,5256.00
2019-06-26T06:55:38.524Z,5272.00
2019-06-26T06:56:38.513Z,5304.00
2019-06-26T06:57:38.507Z,5320.00
2019-06-26T06:58:38.509Z,5336.00
2019-06-26T06:59:38.478Z,5352.00
2019-06-26T07:00:38.473Z,5388.00
2019-06-26T07:01:38.457Z,5416.00
2019-06-26T07:02:38.485Z,5448.00
2019-06-26T07:03:38.457Z,5484.00
2019-06-26T07:04:38.430Z,5528.00
2019-06-26T07:05:38.411Z,5564.00
2019-06-26T07:06:38.420Z,5600.00
2019-06-26T07:07:38.396Z,5632.00
2019-06-26T07:08:38.389Z,5656.00
2019-06-26T07:09:38.377Z,5692.00
2019-06-26T07:10:38.370Z,5724.00
2019-06-26T07:11:38.412Z,5752.00
2019-06-26T07:12:38.354Z,5776.00
2019-06-26T07:13:38.323Z,5804.00
2019-06-26T07:14:38.315Z,5820.00
2019-06-26T07:15:38.322Z,5848.00
2019-06-26T07:16:38.297Z,5872.00
2019-06-26T07:17:38.298Z,5888.00
2019-06-26T07:18:38.279Z,5916.00
2019-06-26T07:19:38.259Z,5944.00
2019-06-26T07:20:38.280Z,5960.00
2019-06-26T07:21:38.239Z,5988.00
2019-06-26T07:22:38.282Z,6016.00
2019-06-26T07:23:38.313Z,6028.00
2019-06-26T07:24:38.208Z,6060.00
2019-06-26T07:25:38.199Z,6080.00
2019-06-26T07:26:38.203Z,6100.00
2019-06-26T07:27:38.174Z,6116.00
2019-06-26T07:28:38.166Z,6152.00
2019-06-26T07:29:38.152Z,6176.00
2019-06-26T07:30:38.148Z,6196.00
2019-06-26T07:31:38.627Z,6208.00
2019-06-26T07:32:38.128Z,6224.00
2019-06-26T07:33:38.114Z,6268.00
2019-06-26T07:34:38.113Z,6316.00
2019-06-26T07:35:38.089Z,6344.00
2019-06-26T07:36:38.081Z,6372.00
2019-06-26T07:37:38.077Z,6420.00
2019-06-26T07:38:38.070Z,6472.00
2019-06-26T07:39:38.059Z,6516.00
2019-06-26T07:40:38.029Z,6572.00
2019-06-26T07:41:38.037Z,6648.00
2019-06-26T07:42:38.021Z,6764.00
2019-06-26T07:43:38.018Z,6844.00
2019-06-26T07:44:37.988Z,6824.00
2019-06-26T07:45:37.982Z,6828.00
2019-06-26T07:46:37.971Z,6872.00
2019-06-26T07:47:43.568Z,6936.00
2019-06-26T07:48:38.952Z,6996.00
2019-06-26T07:49:37.931Z,7108.00
2019-06-26T07:50:37.923Z,7104.00
2019-06-26T07:51:37.915Z,7136.00
2019-06-26T07:52:37.899Z,7160.00
2019-06-26T07:53:37.903Z,7192.00
2019-06-26T07:54:37.884Z,7212.00
2019-06-26T07:55:40.484Z,7264.00
2019-06-26T07:56:37.893Z,7288.00
2019-06-26T07:57:37.853Z,7328.00
2019-06-26T07:58:37.837Z,7384.00
2019-06-26T07:59:37.828Z,7444.00
2019-06-26T08:00:37.828Z,7504.00
2019-06-26T08:01:37.807Z,7524.00
2019-06-26T08:02:37.803Z,7600.00
2019-06-26T08:03:37.802Z,7684.00
2019-06-26T08:04:37.776Z,7748.00
2019-06-26T08:05:37.776Z,7796.00
2019-06-26T08:06:37.758Z,7852.00
2019-06-26T08:07:37.762Z,7936.00
2019-06-26T08:08:37.740Z,8012.00
2019-06-26T08:09:37.723Z,8008.00
2019-06-26T08:10:37.741Z,8040.00
2019-06-26T08:11:37.706Z,8104.00
2019-06-26T08:12:37.693Z,8176.00
2019-06-26T08:13:37.685Z,8184.00
2019-06-26T08:14:37.667Z,8216.00
2019-06-26T08:15:37.657Z,8260.00
2019-06-26T08:16:37.652Z,8368.00
2019-06-26T08:17:37.634Z,8428.00
2019-06-26T08:18:37.636Z,8488.00
2019-06-26T08:19:37.612Z,8556.00
2019-06-26T08:20:51.928Z,8604.00
2019-06-26T08:21:38.598Z,8720.00
2019-06-26T08:22:37.582Z,8800.00
2019-06-26T08:23:37.604Z,8844.00
2019-06-26T08:24:37.610Z,8900.00
2019-06-26T08:25:37.545Z,8900.00
2019-06-26T08:26:37.536Z,8884.00
2019-06-26T08:27:37.526Z,8948.00
2019-06-26T08:28:37.515Z,9004.00
2019-06-26T08:29:37.508Z,9048.00
2019-06-26T08:30:37.498Z,9084.00
2019-06-26T08:31:37.487Z,9168.00
2019-06-26T08:32:37.471Z,9312.00
2019-06-26T08:33:37.464Z,9392.00
2019-06-26T08:34:37.492Z,9460.00
2019-06-26T08:35:37.442Z,9524.00
2019-06-26T08:36:37.428Z,9588.00
2019-06-26T08:37:37.418Z,9620.00
2019-06-26T08:38:37.432Z,9640.00
2019-06-26T08:39:37.408Z,9648.00
2019-06-26T08:40:37.394Z,9660.00
2019-06-26T08:41:37.393Z,9676.00
2019-06-26T08:42:37.366Z,9732.00
2019-06-26T08:43:37.360Z,9852.00
2019-06-26T08:44:37.349Z,9924.00
2019-06-26T08:45:37.335Z,9964.00
2019-06-26T08:46:37.335Z,10060.00
2019-06-26T08:47:37.310Z,10128.00
2019-06-26T08:48:40.244Z,10184.00
2019-06-26T08:49:37.301Z,10172.00
2019-06-26T08:50:37.299Z,10224.00
2019-06-26T08:51:37.272Z,10300.00
2019-06-26T08:52:37.257Z,10328.00
2019-06-26T08:53:37.247Z,10400.00
2019-06-26T08:54:37.241Z,10504.00
2019-06-26T08:55:37.266Z,10500.00
2019-06-26T08:56:37.226Z,10496.00
2019-06-26T08:57:37.230Z,10508.00
2019-06-26T08:58:37.197Z,10500.00
2019-06-26T08:59:37.195Z,10516.00
2019-06-26T09:00:37.181Z,10632.00
2019-06-26T09:01:37.487Z,10724.00
2019-06-26T09:02:37.157Z,10772.00
2019-06-26T09:03:37.147Z,10820.00
2019-06-26T09:04:37.143Z,10864.00
2019-06-26T09:05:47.637Z,10920.00
2019-06-26T09:06:38.121Z,10912.00
2019-06-26T09:07:37.104Z,10908.00
2019-06-26T09:08:37.102Z,10968.00
2019-06-26T09:09:37.085Z,11124.00
2019-06-26T09:10:37.074Z,11176.00
2019-06-26T09:11:37.065Z,11244.00
2019-06-26T09:12:37.072Z,11296.00
2019-06-26T09:13:37.038Z,11316.00
2019-06-26T09:14:37.032Z,11308.00
2019-06-26T09:15:37.024Z,11268.00
2019-06-26T09:16:37.029Z,11264.00
2019-06-26T09:17:37.037Z,11308.00
2019-06-26T09:18:36.991Z,11368.00
2019-06-26T09:19:36.981Z,11284.00
2019-06-26T09:20:36.970Z,11360.00
2019-06-26T09:21:36.969Z,11456.00
2019-06-26T09:22:36.964Z,11368.00
2019-06-26T09:23:36.943Z,11388.00
2019-06-26T09:24:36.922Z,11344.00
2019-06-26T09:25:36.913Z,11344.00
2019-06-26T09:26:36.915Z,11252.00
2019-06-26T09:27:36.895Z,11180.00
2019-06-26T09:28:36.901Z,11300.00
2019-06-26T09:29:36.886Z,11284.00
2019-06-26T09:30:36.864Z,11132.00
2019-06-26T09:31:36.866Z,10904.00
2019-06-26T09:32:36.843Z,10868.00
2019-06-26T09:33:36.855Z,11276.00
2019-06-26T09:34:36.822Z,11556.00
2019-06-26T09:35:36.810Z,11852.00
2019-06-26T09:36:36.807Z,11972.00
2019-06-26T09:37:36.790Z,12292.00
2019-06-26T09:38:36.780Z,12620.00
2019-06-26T09:39:36.771Z,12712.00
2019-06-26T09:40:36.765Z,12868.00
2019-06-26T09:41:36.747Z,12944.00
2019-06-26T09:42:36.738Z,13012.00
2019-06-26T09:43:36.724Z,13132.00
2019-06-26T09:44:36.763Z,13432.00
2019-06-26T09:45:36.719Z,13748.00
2019-06-26T09:46:36.707Z,13792.00
2019-06-26T09:47:36.684Z,13516.00
2019-06-26T09:48:51.379Z,13456.00
2019-06-26T09:49:37.710Z,13496.00
2019-06-26T09:50:36.657Z,13608.00
2019-06-26T09:51:36.701Z,13856.00
2019-06-26T09:52:36.631Z,13760.00
2019-06-26T09:53:46.729Z,13736.00
2019-06-26T09:54:37.608Z,13948.00
2019-06-26T09:55:36.642Z,13844.00
2019-06-26T09:56:36.601Z,13696.00
2019-06-26T09:57:36.581Z,13632.00
2019-06-26T09:58:36.581Z,13652.00
2019-06-26T09:59:36.556Z,13756.00
2019-06-26T10:00:36.584Z,13828.00
2019-06-26T10:01:36.537Z,13900.00
2019-06-26T10:02:36.528Z,13968.00
2019-06-26T10:03:36.518Z,14032.00
2019-06-26T10:04:36.509Z,14044.00
2019-06-26T10:05:36.491Z,14100.00
2019-06-26T10:06:36.516Z,14132.00
2019-06-26T10:07:36.475Z,14048.00
2019-06-26T10:08:36.484Z,13852.00
2019-06-26T10:09:36.455Z,13672.00
2019-06-26T10:10:36.439Z,13688.00
2019-06-26T10:11:36.429Z,13796.00
2019-06-26T10:12:36.421Z,14024.00
2019-06-26T10:13:36.407Z,14304.00
2019-06-26T10:14:47.466Z,14492.00
2019-06-26T10:15:37.396Z,14668.00
2019-06-26T10:16:36.413Z,14864.00
2019-06-26T10:17:36.371Z,15016.00
2019-06-26T10:18:36.376Z,15132.00
2019-06-26T10:19:36.361Z,15240.00
2019-06-26T10:20:36.337Z,15948.00
2019-06-26T10:21:36.373Z,16140.00
2019-06-26T10:22:36.319Z,16652.00
2019-06-26T10:23:36.311Z,17504.00
2019-06-26T10:24:36.305Z,18340.00
2019-06-26T10:25:36.288Z,31488.00
2019-06-26T10:26:36.281Z,72928.00
2019-06-26T10:27:36.304Z,16648.00
2019-06-26T10:28:36.259Z,23104.00
2019-06-26T10:29:36.247Z,16960.00
2019-06-26T10:30:36.238Z,17076.00
2019-06-26T10:31:36.244Z,15244.00
2019-06-26T10:32:36.220Z,16420.00
2019-06-26T10:33:36.221Z,99552.00
2019-06-26T10:34:36.191Z,95232.00
2019-06-26T10:35:36.184Z,91872.00
2019-06-26T10:36:36.182Z,94336.00
2019-06-26T10:37:36.163Z,95104.00
2019-06-26T10:38:36.201Z,94496.00
2019-06-26T10:39:36.152Z,93280.00
2019-06-26T10:40:36.134Z,84992.00
2019-06-26T10:41:36.128Z,88384.00
2019-06-26T10:42:36.119Z,88480.00
2019-06-26T10:43:36.111Z,93664.00
2019-06-26T10:44:36.126Z,92928.00
2019-06-26T10:45:36.396Z,91360.00
2019-06-26T10:46:36.082Z,89824.00
2019-06-26T10:47:39.497Z,93248.00
2019-06-26T10:48:36.064Z,96672.00
2019-06-26T10:49:36.066Z,95168.00
2019-06-26T10:50:47.839Z,94560.00
2019-06-26T10:51:37.032Z,94016.00
2019-06-26T10:52:36.032Z,90176.00
2019-06-26T10:53:36.020Z,94240.00
2019-06-26T10:54:36.030Z,93280.00
2019-06-26T10:55:36.005Z,92896.00
2019-06-26T10:56:35.997Z,93664.00
2019-06-26T10:57:35.979Z,96000.00
2019-06-26T10:58:35.978Z,93088.00
2019-06-26T10:59:35.985Z,91360.00
2019-06-26T11:00:35.969Z,93152.00
2019-06-26T11:01:35.946Z,93760.00
2019-06-26T11:02:35.950Z,91648.00
2019-06-26T11:03:35.950Z,93984.00
2019-06-26T11:04:35.958Z,94432.00
2019-06-26T11:05:35.938Z,95200.00
2019-06-26T11:06:37.270Z,93760.00
2019-06-26T11:07:36.694Z,18612.00
2019-06-26T11:08:35.888Z,93920.00
2019-06-26T11:09:35.879Z,91392.00
2019-06-26T11:10:35.863Z,95584.00
2019-06-26T11:11:35.867Z,96928.00
2019-06-26T11:12:35.860Z,94208.00
2019-06-26T11:13:35.902Z,96480.00
2019-06-26T11:14:35.837Z,96992.00
2019-06-26T11:15:35.825Z,94528.00
2019-06-26T11:16:35.829Z,95360.00
2019-06-26T11:17:35.818Z,22592.00
2019-06-26T11:18:35.800Z,95072.00
2019-06-26T11:19:43.815Z,97984.00
2019-06-26T11:20:36.775Z,17540.00
2019-06-26T11:21:35.777Z,15512.00
2019-06-26T11:22:35.753Z,16656.00
2019-06-26T11:23:35.745Z,33216.00
2019-06-26T11:24:35.752Z,84128.00
2019-06-26T11:25:35.735Z,23392.00
2019-06-26T11:26:35.730Z,20768.00
2019-06-26T11:27:35.752Z,84448.00
2019-06-26T11:28:35.713Z,84160.00
2019-06-26T11:29:35.696Z,86944.00
2019-06-26T11:30:35.682Z,92768.00
2019-06-26T11:31:35.674Z,92384.00
2019-06-26T11:32:35.685Z,90848.00
2019-06-26T11:33:35.651Z,93504.00
2019-06-26T11:34:35.648Z,91456.00
2019-06-26T11:35:35.650Z,93184.00
2019-06-26T11:36:35.644Z,90368.00
2019-06-26T11:37:35.719Z,93728.00
2019-06-26T11:38:35.612Z,93696.00
2019-06-26T11:39:35.599Z,92096.00
2019-06-26T11:40:35.595Z,92096.00
2019-06-26T11:41:35.583Z,91360.00
2019-06-26T11:42:35.574Z,92480.00
2019-06-26T11:43:35.578Z,86848.00
2019-06-26T11:44:35.563Z,93728.00
2019-06-26T11:45:35.552Z,93984.00
2019-06-26T11:46:37.064Z,95520.00
2019-06-26T11:47:35.525Z,93632.00
2019-06-26T11:48:35.539Z,92640.00
2019-06-26T11:49:35.513Z,95616.00
2019-06-26T11:50:35.522Z,94976.00
2019-06-26T11:51:35.497Z,96352.00
2019-06-26T11:52:35.479Z,98624.00
2019-06-26T11:53:35.488Z,94912.00
2019-06-26T11:54:35.461Z,95808.00
2019-06-26T11:55:35.460Z,94912.00
2019-06-26T11:56:35.457Z,95936.00
2019-06-26T11:57:35.446Z,94656.00
2019-06-26T11:58:35.457Z,95776.00
2019-06-26T11:59:35.417Z,96608.00
2019-06-26T12:00:35.417Z,97696.00
2019-06-26T12:01:35.401Z,98304.00
2019-06-26T12:02:35.396Z,94048.00
2019-06-26T12:03:35.391Z,75584.00
2019-06-26T12:04:35.405Z,96800.00
2019-06-26T12:05:35.384Z,95872.00
2019-06-26T12:06:35.361Z,92576.00
2019-06-26T12:07:35.350Z,93664.00
2019-06-26T12:08:35.341Z,94432.00
2019-06-26T12:09:35.341Z,38016.00
2019-06-26T12:10:35.370Z,56736.00
2019-06-26T12:11:35.324Z,77536.00
2019-06-26T12:12:35.310Z,87488.00
2019-06-26T12:13:35.299Z,18864.00
2019-06-26T12:14:35.307Z,18460.00